createdAt,value
2023-02-27T00:01:39.415Z,1328
2023-02-27T00:03:23.116Z,1328.1
2023-02-27T00:05:06.892Z,1329.7
2023-02-27T00:06:50.517Z,1329.8
2023-02-27T00:08:34.226Z,1330.4
2023-02-27T00:10:17.933Z,1331.3
2023-02-27T00:12:01.628Z,1327.2
2023-02-27T00:13:45.337Z,1324
2023-02-27T00:15:29.032Z,1320.3
2023-02-27T00:17:12.737Z,1319.8
2023-02-27T00:18:56.437Z,1316.4
2023-02-27T00:20:40.138Z,1310.4
2023-02-27T00:22:23.837Z,1301.5
2023-02-27T00:24:07.543Z,1302.3
2023-02-27T00:25:51.252Z,1304.1
2023-02-27T00:27:34.955Z,1306.2
2023-02-27T00:29:18.645Z,1310.1
2023-02-27T00:31:02.351Z,1311.2
2023-02-27T00:32:46.064Z,1318
2023-02-27T00:34:29.761Z,1322.5
2023-02-27T00:36:13.464Z,1335.6
2023-02-27T00:37:57.155Z,1337.2
2023-02-27T00:39:40.862Z,1333.9
2023-02-27T00:41:24.569Z,1344
2023-02-27T00:43:08.264Z,1342.7
2023-02-27T00:44:51.987Z,1335.1
2023-02-27T00:46:35.673Z,1336.3
2023-02-27T00:48:19.384Z,1339.1
2023-02-27T00:50:03.080Z,1331.7
2023-02-27T00:51:46.788Z,1326.7
2023-02-27T00:53:30.488Z,1330
2023-02-27T00:55:14.193Z,1329.8
2023-02-27T00:56:57.884Z,1331.1
2023-02-27T00:58:41.587Z,1327.7
2023-02-27T01:00:25.291Z,1329.4
2023-02-27T01:02:08.990Z,1330.3
2023-02-27T01:03:52.730Z,1330.6
2023-02-27T01:05:36.399Z,1332.4
2023-02-27T01:07:20.116Z,1333.5
2023-02-27T01:09:03.808Z,1333.6
2023-02-27T01:10:47.565Z,1332.6
2023-02-27T01:12:31.221Z,1331.3
2023-02-27T01:14:14.961Z,1332.4
2023-02-27T01:15:58.628Z,1339.4
2023-02-27T01:17:42.338Z,1340.3
2023-02-27T01:19:26.024Z,1350.4
2023-02-27T01:21:09.727Z,1349.8
2023-02-27T01:22:53.436Z,1347.6
2023-02-27T01:24:37.136Z,1349.2
2023-02-27T01:26:20.836Z,1348.1
2023-02-27T01:28:04.542Z,1346.6
2023-02-27T01:29:48.236Z,1343.5
2023-02-27T01:31:31.945Z,1343.8
2023-02-27T01:33:15.643Z,1347.7
2023-02-27T01:34:59.349Z,1354.3
2023-02-27T01:36:43.063Z,1358.9
2023-02-27T01:38:26.755Z,1364
2023-02-27T01:40:10.453Z,1366.6
2023-02-27T01:41:54.162Z,1363
2023-02-27T01:43:37.860Z,1358.4
2023-02-27T01:45:21.574Z,1356.3
2023-02-27T01:48:48.963Z,1357.3
2023-02-27T01:50:32.677Z,1360.4
2023-02-27T01:52:16.365Z,1368.9
2023-02-27T01:54:00.073Z,1370.8
2023-02-27T01:55:43.770Z,1380.7
2023-02-27T01:57:27.477Z,1375.8
2023-02-27T01:59:11.175Z,1368.5
2023-02-27T02:00:54.861Z,1368.4
2023-02-27T02:02:38.591Z,1368.6
2023-02-27T02:04:22.279Z,1371.2
2023-02-27T02:06:05.980Z,1370.6
2023-02-27T02:07:49.714Z,1375.5
2023-02-27T02:09:33.401Z,1377.4
2023-02-27T02:11:17.087Z,1377.6
2023-02-27T02:13:00.794Z,1378.6
2023-02-27T02:14:44.488Z,1380.1
2023-02-27T02:16:28.192Z,1383.6
2023-02-27T02:19:55.592Z,1385.3
2023-02-27T02:21:39.293Z,1393.9
2023-02-27T02:23:23.005Z,1389.4
2023-02-27T02:25:06.705Z,1395.3
2023-02-27T02:26:50.420Z,1397.9
2023-02-27T02:28:34.108Z,1400.3
2023-02-27T02:30:17.812Z,1400.6
2023-02-27T02:32:01.517Z,1402.9
2023-02-27T02:33:45.219Z,1411.2
2023-02-27T02:35:28.919Z,1419.4
2023-02-27T02:37:12.627Z,1409.9
2023-02-27T02:38:56.321Z,1407.4
2023-02-27T02:40:40.029Z,1405.7
2023-02-27T02:42:23.738Z,1411.2
2023-02-27T02:44:07.440Z,1414.4
2023-02-27T02:45:51.138Z,1417.8
2023-02-27T02:47:34.837Z,1427.4
2023-02-27T02:49:18.541Z,1426.3
2023-02-27T02:51:02.242Z,1429.2
2023-02-27T02:52:45.958Z,1429.5
2023-02-27T02:54:29.675Z,1432.6
2023-02-27T02:56:13.353Z,1434.8
2023-02-27T02:57:57.064Z,1437.8
2023-02-27T02:59:40.767Z,1437
2023-02-27T03:01:24.457Z,1435.5
2023-02-27T03:03:08.171Z,1432.1
2023-02-27T03:04:51.870Z,1435.4
2023-02-27T03:06:35.570Z,1444.3
2023-02-27T03:08:19.281Z,1446.3
2023-02-27T03:10:02.987Z,1443.1
2023-02-27T03:11:46.685Z,1442.3
2023-02-27T03:13:30.389Z,1442.7
2023-02-27T03:15:14.099Z,1446.1
2023-02-27T03:16:57.818Z,1447.4
2023-02-27T03:18:41.504Z,1439.4
2023-02-27T03:20:25.208Z,1446.2
2023-02-27T03:22:08.918Z,1444.7
2023-02-27T03:23:52.603Z,1442.4
2023-02-27T03:25:36.312Z,1445
2023-02-27T03:27:20.025Z,1452.2
2023-02-27T03:29:03.717Z,1456.7
2023-02-27T03:30:47.424Z,1456.7
2023-02-27T03:32:31.115Z,1455.7
2023-02-27T03:34:14.855Z,1453.9
2023-02-27T03:35:58.534Z,1454.9
2023-02-27T03:37:42.232Z,1463.4
2023-02-27T03:39:25.932Z,1465.2
2023-02-27T03:41:09.631Z,1461.4
2023-02-27T03:42:53.330Z,1461.3
2023-02-27T03:44:37.032Z,1463.4
2023-02-27T03:46:20.730Z,1461.2
2023-02-27T03:48:04.433Z,1463.2
2023-02-27T03:49:48.139Z,1472.4
2023-02-27T03:51:31.855Z,1473.7
2023-02-27T03:53:15.546Z,1472.9
2023-02-27T03:54:59.248Z,1476.3
2023-02-27T03:56:42.970Z,1474.4
2023-02-27T03:58:26.658Z,1471.2
2023-02-27T04:00:10.351Z,1472.3
2023-02-27T04:01:54.055Z,1474
2023-02-27T04:03:37.764Z,1474.7
2023-02-27T04:05:21.460Z,1476.8
2023-02-27T04:07:05.160Z,1472.6
2023-02-27T04:08:48.900Z,1475.2
2023-02-27T04:10:32.566Z,1480
2023-02-27T04:12:16.280Z,1476
2023-02-27T04:13:59.979Z,1481.8
2023-02-27T04:15:43.676Z,1484.9
2023-02-27T04:17:27.381Z,1489.6
2023-02-27T04:19:11.077Z,1488.5
2023-02-27T04:20:54.796Z,1490.9
2023-02-27T04:22:38.486Z,1494.3
2023-02-27T04:24:22.188Z,1497
2023-02-27T04:26:05.890Z,1498.6
2023-02-27T04:27:49.607Z,1496.1
2023-02-27T04:29:33.298Z,1494.5
2023-02-27T04:31:17.001Z,1498.1
2023-02-27T04:33:00.707Z,1499.3
2023-02-27T04:34:44.421Z,1502.9
2023-02-27T04:36:28.105Z,1502.3
2023-02-27T04:38:11.811Z,1505.4
2023-02-27T04:39:55.560Z,1509.2
2023-02-27T04:41:39.234Z,1508.7
2023-02-27T04:43:22.922Z,1510
2023-02-27T04:45:06.623Z,1505.8
2023-02-27T04:46:50.319Z,1510
2023-02-27T04:48:34.026Z,1511.6
2023-02-27T04:50:17.724Z,1505.8
2023-02-27T04:52:01.438Z,1506.6
2023-02-27T04:53:45.138Z,1513.7
2023-02-27T04:55:28.842Z,1517.5
2023-02-27T04:57:12.548Z,1517.1
2023-02-27T04:58:56.251Z,1516.7
2023-02-27T05:00:39.955Z,1521.2
2023-02-27T05:02:23.648Z,1524.3
2023-02-27T05:04:07.354Z,1524
2023-02-27T05:05:51.057Z,1525.5
2023-02-27T05:07:34.766Z,1527
2023-02-27T05:09:18.460Z,1531.7
2023-02-27T05:11:02.306Z,1532
2023-02-27T05:12:45.868Z,1531.4
2023-02-27T05:14:29.563Z,1532.4
2023-02-27T05:16:13.279Z,1533.5
2023-02-27T05:17:56.969Z,1532.5
2023-02-27T05:19:40.672Z,1534.2
2023-02-27T05:21:24.373Z,1535.9
2023-02-27T05:23:08.079Z,1539.1
2023-02-27T05:24:51.781Z,1541.8
2023-02-27T05:26:35.484Z,1542.1
2023-02-27T05:28:19.194Z,1551
2023-02-27T05:30:02.881Z,1553.5
2023-02-27T05:31:46.592Z,1559.2
2023-02-27T05:33:30.297Z,1560.5
2023-02-27T05:35:14.002Z,1560.2
2023-02-27T05:36:57.703Z,1560.5
2023-02-27T05:38:41.403Z,1562.7
2023-02-27T05:40:25.106Z,1562.7
2023-02-27T05:42:08.806Z,1563.7
2023-02-27T05:43:52.506Z,1562.2
2023-02-27T05:45:36.204Z,1563
2023-02-27T05:47:19.918Z,1561.1
2023-02-27T05:49:03.615Z,1556.8
2023-02-27T05:50:47.313Z,1556.9
2023-02-27T05:52:31.018Z,1558.9
2023-02-27T05:54:14.725Z,1560.8
2023-02-27T05:55:58.418Z,1563.7
2023-02-27T05:57:42.124Z,1562.6
2023-02-27T05:59:25.847Z,1564.1
2023-02-27T06:01:09.535Z,1564
2023-02-27T06:02:53.224Z,1566.4
2023-02-27T06:04:36.933Z,1569.5
2023-02-27T06:06:20.632Z,1598.8
2023-02-27T06:08:04.338Z,1605.7
2023-02-27T06:09:48.030Z,1598.6
2023-02-27T06:11:31.736Z,1600.9
2023-02-27T06:13:15.450Z,1603.2
2023-02-27T06:14:59.138Z,1616
2023-02-27T06:16:42.850Z,1639.5
2023-02-27T06:18:26.560Z,1653.2
2023-02-27T06:20:10.252Z,1664.5
2023-02-27T06:21:53.959Z,1679.8
2023-02-27T06:23:37.670Z,1694.4
2023-02-27T06:25:21.362Z,1716.5
2023-02-27T06:27:05.086Z,1733.3
2023-02-27T06:28:48.775Z,1737.4
2023-02-27T06:30:32.482Z,1744.3
2023-02-27T06:32:16.196Z,1748.7
2023-02-27T06:33:59.883Z,1768.6
2023-02-27T06:35:43.587Z,1775.9
2023-02-27T06:37:27.290Z,1774.5
2023-02-27T06:39:10.986Z,1772.2
2023-02-27T06:40:54.686Z,1777.8
2023-02-27T06:42:38.386Z,1835.5
2023-02-27T06:44:22.112Z,1889.9
2023-02-27T06:46:05.793Z,1885.6
2023-02-27T06:47:49.491Z,1875.6
2023-02-27T06:49:33.195Z,1877.7
2023-02-27T06:51:16.899Z,1892.9
2023-02-27T06:53:00.600Z,1905.8
2023-02-27T06:54:44.306Z,1923
2023-02-27T06:56:28.009Z,1917.6
2023-02-27T06:58:11.701Z,1916
2023-02-27T06:59:55.411Z,1917.1
2023-02-27T07:01:39.111Z,1923
2023-02-27T07:03:22.823Z,1923.3
2023-02-27T07:05:06.518Z,1917.1
2023-02-27T07:06:50.232Z,1913.5
2023-02-27T07:08:33.924Z,1915
2023-02-27T07:10:26.162Z,1974.6
2023-02-27T07:12:31.312Z,2042.9
2023-02-27T07:14:37.378Z,2114.6
2023-02-27T07:16:43.444Z,2120.5
2023-02-27T07:18:49.517Z,2110.8
2023-02-27T07:20:54.860Z,2092.9
2023-02-27T07:22:59.905Z,2077.3
2023-02-27T07:25:04.964Z,2073.9
2023-02-27T07:27:10.004Z,2065.9
2023-02-27T07:29:15.051Z,2057.9
2023-02-27T07:31:20.109Z,2046.5
2023-02-27T07:33:25.128Z,2032
2023-02-27T07:35:30.173Z,2034.9
2023-02-27T07:37:35.228Z,2022.1
2023-02-27T07:39:40.277Z,2016.6
2023-02-27T07:41:45.308Z,2016.8
2023-02-27T07:43:50.355Z,2017.5
2023-02-27T07:45:55.429Z,2015.4
2023-02-27T07:48:00.449Z,2010.9
2023-02-27T07:50:05.549Z,2008.5
2023-02-27T07:52:10.538Z,2012.5
2023-02-27T07:54:15.756Z,2006.5
2023-02-27T07:56:14.362Z,2003.1
2023-02-27T07:57:57.944Z,1993.9
2023-02-27T07:59:41.627Z,1989.7
2023-02-27T08:01:25.433Z,1988
2023-02-27T08:03:09.142Z,1987.6
2023-02-27T08:04:52.751Z,1993.8
2023-02-27T08:06:36.438Z,1993.4
2023-02-27T08:08:20.144Z,1995.1
2023-02-27T08:10:03.845Z,1992.6
2023-02-27T08:11:47.548Z,1992.2
2023-02-27T08:13:31.243Z,1992.1
2023-02-27T08:15:14.950Z,1988
2023-02-27T08:16:58.704Z,1986.6
2023-02-27T08:18:42.353Z,1982.6
2023-02-27T08:20:26.127Z,1981
2023-02-27T08:22:09.754Z,1976.6
2023-02-27T08:23:53.464Z,1974.7
2023-02-27T08:25:37.149Z,1972.8
2023-02-27T08:27:20.868Z,1966.4
2023-02-27T08:29:04.588Z,1964.6
2023-02-27T08:30:48.258Z,1957.3
2023-02-27T08:32:31.955Z,1951.3
2023-02-27T08:34:15.669Z,1950.8
2023-02-27T08:35:59.371Z,1952.3
2023-02-27T08:37:43.118Z,1950.1
2023-02-27T08:39:26.778Z,1949.4
2023-02-27T08:41:10.484Z,1953.7
2023-02-27T08:42:54.182Z,1950.8
2023-02-27T08:44:37.876Z,1954.5
2023-02-27T08:46:21.590Z,1954.4
2023-02-27T08:48:05.328Z,1955.1
2023-02-27T08:49:48.992Z,1961.5
2023-02-27T08:51:32.762Z,1962.5
2023-02-27T08:53:16.386Z,1954.7
2023-02-27T08:55:00.144Z,1953.8
2023-02-27T08:56:43.803Z,1955.3
2023-02-27T08:58:27.487Z,1965.9
2023-02-27T09:00:11.196Z,1971.3
2023-02-27T09:01:54.938Z,1978.6
2023-02-27T09:03:38.628Z,1973.7
2023-02-27T09:05:22.308Z,1966.6
2023-02-27T09:07:06.007Z,1965.2
2023-02-27T09:08:49.705Z,1968.9
2023-02-27T09:10:33.419Z,1973.4
2023-02-27T09:12:17.118Z,1973.7
2023-02-27T09:14:00.819Z,1966.5
2023-02-27T09:15:44.513Z,1964.4
2023-02-27T09:17:28.229Z,1961.2
2023-02-27T09:19:11.933Z,1957.9
2023-02-27T09:20:55.667Z,1957.2
2023-02-27T09:22:39.346Z,1952.8
2023-02-27T09:24:23.107Z,1950.3
2023-02-27T09:26:06.727Z,1947.5
2023-02-27T09:27:50.437Z,1945.7
2023-02-27T09:29:34.126Z,1940.6
2023-02-27T09:31:17.835Z,1918
2023-02-27T09:33:01.614Z,1873.1
2023-02-27T09:34:45.239Z,1836.9
2023-02-27T09:36:28.999Z,1795.7
2023-02-27T09:38:12.660Z,1782.8
2023-02-27T09:39:56.397Z,1772.8
2023-02-27T09:41:40.061Z,1415.5
2023-02-27T09:43:23.757Z,1295.4
2023-02-27T09:45:07.465Z,1195.8
2023-02-27T09:46:51.160Z,1474.4
2023-02-27T09:48:34.861Z,1466.8
2023-02-27T09:50:18.630Z,1320.6
2023-02-27T09:52:02.286Z,1167
2023-02-27T09:53:45.968Z,1174.2
2023-02-27T09:55:29.672Z,1190.5
2023-02-27T09:57:13.406Z,1226.3
2023-02-27T09:58:57.087Z,1241
2023-02-27T10:00:40.786Z,1249.1
2023-02-27T10:02:24.483Z,1250.9
2023-02-27T10:04:08.181Z,1259.2
2023-02-27T10:05:51.896Z,1270.5
2023-02-27T10:07:35.650Z,1282.6
2023-02-27T10:09:19.300Z,1285.7
2023-02-27T10:11:02.999Z,1288.7
2023-02-27T10:12:46.706Z,1294.4
2023-02-27T10:14:30.407Z,1299.1
2023-02-27T10:16:14.238Z,1301.4
2023-02-27T10:17:57.814Z,1301.9
2023-02-27T10:19:41.583Z,1301.9
2023-02-27T10:21:25.213Z,1300
2023-02-27T10:23:08.913Z,1297.5
2023-02-27T10:24:52.625Z,1306.8
2023-02-27T10:26:36.327Z,1296.6
2023-02-27T10:28:20.028Z,1293.2
2023-02-27T10:30:03.729Z,1302.5
2023-02-27T10:31:47.455Z,1299.8
2023-02-27T10:33:31.169Z,1298.4
2023-02-27T10:35:14.838Z,1297.6
2023-02-27T10:36:58.572Z,1298.3
2023-02-27T10:38:42.260Z,1302.8
2023-02-27T10:40:25.944Z,1299.9
2023-02-27T10:42:09.678Z,1299.8
2023-02-27T10:43:53.345Z,1298
2023-02-27T10:45:37.067Z,1300.4
2023-02-27T10:47:20.844Z,1294.9
2023-02-27T10:49:04.453Z,1294.7
2023-02-27T10:50:48.205Z,1294.5
2023-02-27T10:52:31.861Z,1257
2023-02-27T10:54:15.617Z,1220.4
2023-02-27T10:55:59.353Z,1227.2
2023-02-27T10:57:42.978Z,1239.1
2023-02-27T10:59:26.673Z,1245
2023-02-27T11:01:10.415Z,1250.5
2023-02-27T11:02:54.131Z,1257.3
2023-02-27T11:04:37.804Z,1259.2
2023-02-27T11:06:21.486Z,1258.6
2023-02-27T11:08:05.191Z,1256
2023-02-27T11:09:48.900Z,1252
2023-02-27T11:11:32.587Z,1240.8
2023-02-27T11:13:16.303Z,1217.5
2023-02-27T11:15:00.000Z,1198.4
2023-02-27T11:16:43.694Z,1182.9
2023-02-27T11:18:27.420Z,1177.1
2023-02-27T11:20:11.098Z,1164.3
2023-02-27T11:21:54.846Z,1156.2
2023-02-27T11:23:38.513Z,1147.9
2023-02-27T11:25:22.225Z,1147.4
2023-02-27T11:27:05.924Z,1137.2
2023-02-27T11:28:49.622Z,1138.2
2023-02-27T11:30:33.322Z,1131.9
2023-02-27T11:32:17.073Z,1126.4
2023-02-27T11:34:00.762Z,1127
2023-02-27T11:35:44.439Z,1122.1
2023-02-27T11:37:28.135Z,1111.4
2023-02-27T11:39:11.840Z,1110.5
2023-02-27T11:40:55.579Z,1105
2023-02-27T11:42:39.273Z,1102.7
2023-02-27T11:44:22.981Z,1101
2023-02-27T11:46:06.725Z,1100
2023-02-27T11:47:50.357Z,1095.9
2023-02-27T11:49:34.074Z,1087.1
2023-02-27T11:51:17.760Z,1085.1
2023-02-27T11:53:01.461Z,1085.1
2023-02-27T11:54:45.162Z,1083.3
2023-02-27T11:56:28.877Z,1079.6
2023-02-27T11:58:12.563Z,1081.2
2023-02-27T11:59:56.274Z,1084.8
2023-02-27T12:01:40.049Z,1094.3
2023-02-27T12:03:23.787Z,1118.3
2023-02-27T12:05:07.447Z,1159.5
2023-02-27T12:06:51.074Z,1174.8
2023-02-27T12:08:34.863Z,1177.4
2023-02-27T12:10:18.487Z,1187.4
2023-02-27T12:12:02.229Z,1190.2
2023-02-27T12:13:45.911Z,1191.6
2023-02-27T12:15:29.622Z,1200.4
2023-02-27T12:17:13.298Z,1207.4
2023-02-27T12:18:57.128Z,1212.6
2023-02-27T12:20:40.721Z,1214.2
2023-02-27T12:22:24.407Z,1213.3
2023-02-27T12:24:08.115Z,1213.2
2023-02-27T12:25:51.806Z,1216.7
2023-02-27T12:27:35.510Z,1222.3
2023-02-27T12:29:19.213Z,1228.1
2023-02-27T12:31:02.908Z,1228
2023-02-27T12:32:46.612Z,1229.2
2023-02-27T12:34:30.332Z,1237.1
2023-02-27T12:36:14.047Z,1236.2
2023-02-27T12:37:57.736Z,1239.9
2023-02-27T12:39:41.417Z,1243.3
2023-02-27T12:41:25.138Z,1246.8
2023-02-27T12:43:08.829Z,1244.2
2023-02-27T12:44:52.534Z,1242
2023-02-27T12:46:36.222Z,1237.1
2023-02-27T12:48:19.949Z,1238
2023-02-27T12:50:03.666Z,1234.5
2023-02-27T12:51:47.340Z,1229.1
2023-02-27T12:53:31.075Z,1225.7
2023-02-27T12:55:14.746Z,1223.2
2023-02-27T12:56:58.447Z,1222.7
2023-02-27T12:58:42.142Z,1214.5
2023-02-27T13:00:25.849Z,1206.3
2023-02-27T13:02:09.549Z,1199.5
2023-02-27T13:03:53.247Z,1185.8
2023-02-27T13:05:36.976Z,1182.9
2023-02-27T13:07:20.659Z,1183.1
2023-02-27T13:09:04.595Z,1183.4
2023-02-27T13:10:48.067Z,1181.8
2023-02-27T13:12:31.779Z,1177.6
2023-02-27T13:14:15.486Z,1173.7
2023-02-27T13:15:59.175Z,1175.3
2023-02-27T13:17:42.872Z,1177.1
2023-02-27T13:19:26.585Z,1181.7
2023-02-27T13:21:10.276Z,1186.6
2023-02-27T13:22:54.048Z,1185.5
2023-02-27T13:24:37.682Z,1189.1
2023-02-27T13:26:21.389Z,1187.5
2023-02-27T13:28:05.122Z,1190.2
2023-02-27T13:29:48.790Z,1190.2
2023-02-27T13:31:32.549Z,1191.4
2023-02-27T13:33:16.227Z,1194
2023-02-27T13:34:59.899Z,1198.2
2023-02-27T13:36:43.607Z,1198.5
2023-02-27T13:38:27.311Z,1196.9
2023-02-27T13:40:11.000Z,1193.3
2023-02-27T13:41:54.704Z,1191.1
2023-02-27T13:43:38.397Z,1196.9
2023-02-27T13:45:22.178Z,1191.2
2023-02-27T13:47:05.813Z,1188.5
2023-02-27T13:48:49.544Z,1189.4
2023-02-27T13:50:33.248Z,1187.7
2023-02-27T13:52:16.933Z,1189.1
2023-02-27T13:54:00.694Z,1187
2023-02-27T13:55:44.332Z,1192.5
2023-02-27T13:57:28.079Z,1189.8
2023-02-27T13:59:11.799Z,1191.3
2023-02-27T14:00:55.441Z,1191.3
2023-02-27T14:02:39.151Z,1188.4
2023-02-27T14:04:22.845Z,1188.2
2023-02-27T14:06:06.551Z,1188.6
2023-02-27T14:07:50.249Z,1183.8
2023-02-27T14:09:33.957Z,1184.2
2023-02-27T14:11:17.656Z,1185.3
2023-02-27T14:13:01.412Z,1188.4
2023-02-27T14:14:45.051Z,1191.8
2023-02-27T14:16:28.748Z,1181.7
2023-02-27T14:18:12.456Z,1174.5
2023-02-27T14:19:56.156Z,1164.1
2023-02-27T14:21:39.884Z,1157.6
2023-02-27T14:23:23.571Z,1148.9
2023-02-27T14:25:07.374Z,1147.4
2023-02-27T14:26:50.980Z,1152.7
2023-02-27T14:28:34.712Z,1159.3
2023-02-27T14:30:18.371Z,1166.1
2023-02-27T14:32:02.073Z,1164.8
2023-02-27T14:33:45.780Z,1166
2023-02-27T14:35:29.509Z,1167.2
2023-02-27T14:37:13.191Z,1169.7
2023-02-27T14:38:56.910Z,1164.1
2023-02-27T14:40:40.591Z,1163.6
2023-02-27T14:42:24.297Z,1161.5
2023-02-27T14:44:07.987Z,1162
2023-02-27T14:45:51.693Z,1161.1
2023-02-27T14:47:35.400Z,1160.8
2023-02-27T14:49:19.104Z,1159.5
2023-02-27T14:51:02.811Z,1154.9
2023-02-27T14:52:46.515Z,1150.1
2023-02-27T14:54:30.218Z,1147.5
2023-02-27T14:56:13.901Z,1149.6
2023-02-27T14:57:57.604Z,1155.4
2023-02-27T14:59:41.321Z,1159.5
2023-02-27T15:01:25.024Z,1161.7
2023-02-27T15:03:08.724Z,1159.8
2023-02-27T15:04:52.421Z,1160.4
2023-02-27T15:06:36.121Z,1164.5
2023-02-27T15:08:19.824Z,1162.6
2023-02-27T15:10:03.535Z,1160.1
2023-02-27T15:11:47.235Z,1159.2
2023-02-27T15:13:30.935Z,1156.1
2023-02-27T15:15:14.639Z,1154.8
2023-02-27T15:16:58.340Z,1157.3
2023-02-27T15:18:42.042Z,1159.7
2023-02-27T15:20:25.744Z,1160
2023-02-27T15:22:09.448Z,1161.5
2023-02-27T15:23:53.146Z,1159.6
2023-02-27T15:25:36.848Z,1154.2
2023-02-27T15:27:20.550Z,1157.8
2023-02-27T15:29:04.256Z,1160.6
2023-02-27T15:30:47.946Z,1155.1
2023-02-27T15:32:31.660Z,1153.5
2023-02-27T15:34:15.355Z,1153.1
2023-02-27T15:35:59.062Z,1154.8
2023-02-27T15:37:42.757Z,1155.3
2023-02-27T15:39:26.467Z,1156.9
2023-02-27T15:41:10.170Z,1157.2
2023-02-27T15:42:53.875Z,1159.8
2023-02-27T15:44:37.572Z,1157.5
2023-02-27T15:46:21.281Z,1153.7
2023-02-27T15:48:04.978Z,1149
2023-02-27T15:49:48.681Z,1148.9
2023-02-27T15:51:32.392Z,1152.8
2023-02-27T15:53:16.084Z,1154
2023-02-27T15:54:59.789Z,1151.7
2023-02-27T15:56:43.494Z,1152.5
2023-02-27T15:58:27.188Z,1152.2
2023-02-27T16:00:10.893Z,1151.8
2023-02-27T16:01:54.601Z,1148.9
2023-02-27T16:03:38.291Z,1146.9
2023-02-27T16:05:22.004Z,1144.9
2023-02-27T16:07:05.780Z,1145.5
2023-02-27T16:08:49.402Z,1146.4
2023-02-27T16:10:33.111Z,1147.6
2023-02-27T16:12:16.812Z,1143.4
2023-02-27T16:14:00.545Z,1139.2
2023-02-27T16:15:44.276Z,1140.1
2023-02-27T16:17:28.023Z,1139.8
2023-02-27T16:19:11.622Z,1145.7
2023-02-27T16:20:55.318Z,1147.6
2023-02-27T16:22:39.038Z,1141.6
2023-02-27T16:24:22.732Z,1142.5
2023-02-27T16:26:06.425Z,1147.8
2023-02-27T16:27:50.132Z,1148.1
2023-02-27T16:29:33.840Z,1149.5
2023-02-27T16:31:17.537Z,1148.6
2023-02-27T16:33:01.243Z,1148.6
2023-02-27T16:34:44.933Z,1144.4
2023-02-27T16:36:28.664Z,1148.6
2023-02-27T16:38:12.353Z,1145.4
2023-02-27T16:39:56.062Z,1143.7
2023-02-27T16:41:39.747Z,1141.4
2023-02-27T16:43:23.489Z,1143.8
2023-02-27T16:45:07.153Z,1148.4
2023-02-27T16:46:50.866Z,1149.1
2023-02-27T16:48:34.566Z,1141.7
2023-02-27T16:50:18.261Z,1135.7
2023-02-27T16:52:01.970Z,1135.1
2023-02-27T16:53:45.661Z,1130.8
2023-02-27T16:55:29.368Z,1132.4
2023-02-27T16:57:13.073Z,1133
2023-02-27T16:58:56.770Z,1135.1
2023-02-27T17:00:40.473Z,1138.4
2023-02-27T17:02:24.197Z,1142.3
2023-02-27T17:04:07.880Z,1141.4
2023-02-27T17:05:51.644Z,1140
2023-02-27T17:07:35.275Z,1142.1
2023-02-27T17:09:18.986Z,1136
2023-02-27T17:11:02.697Z,1137.8
2023-02-27T17:12:46.394Z,1140.9
2023-02-27T17:14:30.097Z,1142.6
2023-02-27T17:16:13.801Z,1140.7
2023-02-27T17:17:57.495Z,1138.8
2023-02-27T17:19:41.263Z,1136.8
2023-02-27T17:21:24.904Z,1137.8
2023-02-27T17:23:08.602Z,1138.4
2023-02-27T17:24:52.321Z,1136.6
2023-02-27T17:26:36.011Z,1136.2
2023-02-27T17:28:19.715Z,1135.8
2023-02-27T17:30:03.410Z,1133.8
2023-02-27T17:31:47.111Z,1132.7
2023-02-27T17:33:30.818Z,1130.8
2023-02-27T17:35:14.540Z,1129.9
2023-02-27T17:36:58.231Z,1125.9
2023-02-27T17:38:41.938Z,1126.8
2023-02-27T17:40:25.623Z,1126.2
2023-02-27T17:42:09.329Z,1126
2023-02-27T17:43:53.037Z,1120.6
2023-02-27T17:45:36.780Z,1119.6
2023-02-27T17:47:20.448Z,1123.6
2023-02-27T17:49:04.173Z,1120.5
2023-02-27T17:50:47.848Z,1120.6
2023-02-27T17:52:31.566Z,1119.8
2023-02-27T17:54:15.248Z,1120.7
2023-02-27T17:55:58.951Z,1120.5
2023-02-27T17:57:42.652Z,1121.6
2023-02-27T17:59:26.359Z,1125.5
2023-02-27T18:01:10.064Z,1129.1
2023-02-27T18:02:53.761Z,1132.3
2023-02-27T18:04:37.455Z,1149
2023-02-27T18:06:21.178Z,1161.4
2023-02-27T18:08:04.863Z,1167.6
2023-02-27T18:09:48.559Z,1176.4
2023-02-27T18:11:32.262Z,1188.4
2023-02-27T18:13:15.978Z,1204.6
2023-02-27T18:14:59.686Z,1211
2023-02-27T18:16:43.386Z,1235.6
2023-02-27T18:18:27.090Z,1263.4
2023-02-27T18:20:10.780Z,1263.8
2023-02-27T18:21:54.479Z,1264.9
2023-02-27T18:23:38.194Z,1268.7
2023-02-27T18:25:21.912Z,1273.3
2023-02-27T18:28:49.294Z,1304.1
2023-02-27T18:30:33.002Z,1314.1
2023-02-27T18:32:16.694Z,1314.1
2023-02-27T18:34:00.447Z,1309.1
2023-02-27T18:35:44.094Z,1300.6
2023-02-27T18:37:27.843Z,1293.8
2023-02-27T18:39:11.504Z,1292.6
2023-02-27T18:40:55.210Z,1289.5
2023-02-27T18:42:38.902Z,1288.5
2023-02-27T18:44:22.683Z,1291.3
2023-02-27T18:46:06.310Z,1304.2
2023-02-27T18:47:50.015Z,1344.2
2023-02-27T18:49:33.712Z,1368.7
2023-02-27T18:51:17.467Z,1382.5
2023-02-27T18:53:01.128Z,1406.9
2023-02-27T18:54:44.826Z,1414.5
2023-02-27T18:56:28.536Z,1431.1
2023-02-27T18:58:12.233Z,1443.9
2023-02-27T18:59:55.933Z,1456.8
2023-02-27T19:01:39.817Z,1460.8
2023-02-27T19:03:23.334Z,1467.5
2023-02-27T19:05:07.058Z,1482.8
2023-02-27T19:06:50.754Z,1486.1
2023-02-27T19:08:34.452Z,1482.6
2023-02-27T19:10:18.165Z,1477.2
2023-02-27T19:12:01.859Z,1475
2023-02-27T19:13:45.554Z,1475.7
2023-02-27T19:15:29.253Z,1472.1
2023-02-27T19:17:12.977Z,1470.2
2023-02-27T19:18:56.673Z,1472.6
2023-02-27T19:20:40.360Z,1475.5
2023-02-27T19:22:24.061Z,1473.5
2023-02-27T19:24:07.789Z,1474
2023-02-27T19:25:51.489Z,1478.1
2023-02-27T19:27:35.237Z,1483.1
2023-02-27T19:29:18.870Z,1491
2023-02-27T19:31:02.575Z,1496.5
2023-02-27T19:32:46.268Z,1500.1
2023-02-27T19:34:30.017Z,1499.3
2023-02-27T19:36:13.679Z,1505.8
2023-02-27T19:37:57.381Z,1514.8
2023-02-27T19:41:24.803Z,1522.5
2023-02-27T19:43:08.490Z,1521.1
2023-02-27T19:44:52.247Z,1522
2023-02-27T19:46:35.892Z,1526.4
2023-02-27T19:48:19.603Z,1465.6
2023-02-27T19:50:03.420Z,1476.1
2023-02-27T19:51:47.060Z,1474.6
2023-02-27T19:53:30.706Z,1480.2
2023-02-27T19:55:14.390Z,1338.8
2023-02-27T19:56:58.142Z,1329.6
2023-02-27T19:58:41.841Z,1331.1
2023-02-27T20:00:25.534Z,1331.7
2023-02-27T20:02:09.231Z,1336.5
2023-02-27T20:03:52.922Z,1337.5
2023-02-27T20:05:36.626Z,1340.2
2023-02-27T20:07:20.330Z,1348.2
2023-02-27T20:09:04.028Z,1356.4
2023-02-27T20:10:47.729Z,1366.4
2023-02-27T20:12:31.436Z,1365.2
2023-02-27T20:14:15.176Z,1366.9
2023-02-27T20:15:58.843Z,1366.6
2023-02-27T20:17:42.543Z,1369.5
2023-02-27T20:19:26.259Z,1370.3
2023-02-27T20:21:09.941Z,1363.7
2023-02-27T20:22:53.646Z,1363.2
2023-02-27T20:24:37.500Z,1362.9
2023-02-27T20:26:21.058Z,1358.2
2023-02-27T20:28:04.747Z,1365.2
2023-02-27T20:29:48.455Z,1369.4
2023-02-27T20:31:32.179Z,1364.2
2023-02-27T20:33:15.844Z,1361.6
2023-02-27T20:34:59.554Z,1363.2
2023-02-27T20:36:43.262Z,1356.7
2023-02-27T20:38:26.970Z,1360.2
2023-02-27T20:40:10.673Z,1360
2023-02-27T20:41:54.425Z,1356.9
2023-02-27T20:43:38.082Z,1357.1
2023-02-27T20:45:21.795Z,1356.7
2023-02-27T20:47:05.490Z,1353.9
2023-02-27T20:48:49.175Z,1353.3
2023-02-27T20:52:16.575Z,1352.2
2023-02-27T20:54:00.294Z,1347.7
2023-02-27T20:55:44.008Z,1345.9
2023-02-27T20:57:27.713Z,1342
2023-02-27T20:59:11.403Z,1338.3
2023-02-27T21:00:55.089Z,1330.2
2023-02-27T21:02:38.803Z,1325.8
2023-02-27T21:04:22.505Z,1323
2023-02-27T21:06:06.202Z,1315.3
2023-02-27T21:07:49.925Z,1297.1
2023-02-27T21:09:33.612Z,1292.3
2023-02-27T21:11:17.315Z,1297.5
2023-02-27T21:13:01.015Z,1302
2023-02-27T21:14:44.723Z,1300.7
2023-02-27T21:16:28.446Z,1304.7
2023-02-27T21:18:12.130Z,1302.2
2023-02-27T21:19:55.806Z,1306.1
2023-02-27T21:21:39.601Z,1309.5
2023-02-27T21:23:23.256Z,1308.4
2023-02-27T21:25:06.936Z,1298.2
2023-02-27T21:26:50.635Z,1274.9
2023-02-27T21:28:34.322Z,1226.6
2023-02-27T21:30:18.034Z,1230.9
2023-02-27T21:32:01.734Z,1234.9
2023-02-27T21:33:45.439Z,1238.9
2023-02-27T21:35:29.179Z,1242.3
2023-02-27T21:37:12.894Z,1242.4
2023-02-27T21:38:56.544Z,1247
2023-02-27T21:40:40.258Z,1252.4
2023-02-27T21:42:23.957Z,1253.3
2023-02-27T21:44:07.651Z,1259.2
2023-02-27T21:45:51.371Z,1264.3
2023-02-27T21:47:35.059Z,1274.3
2023-02-27T21:49:18.768Z,1283.3
2023-02-27T21:51:02.494Z,1280.7
2023-02-27T21:52:46.167Z,1275.6
2023-02-27T21:54:29.933Z,1274.4
2023-02-27T21:56:13.576Z,1272.4
2023-02-27T21:57:57.302Z,1271.8